Time;durP1;ratioP1;P1;durP2;ratioP2;P2;SDS_P1;SDS_P2;PMS_P1;PMS_P2;Temp;Humidity;BMP_temperature;BMP_pressure;BME280_temperature;BME280_humidity;BME280_pressure;Samples;Min_cycle;Max_cycle;Signal;HPM_P1;HPM_P2
2023/02/21 02:15:01;;;;;;;7.50;4.80;;;9.80;99.90;;;;;;2085615;28;20526;-73
2023/02/21 02:16:32;;;;;;;7.43;4.65;;;9.80;99.90;;;;;;2081698;28;20755;-74
2023/02/21 02:18:08;;;;;;;7.65;4.63;;;9.80;99.90;;;;;;2075198;28;20030;-73
2023/02/21 02:19:40;;;;;;;5.72;4.30;;;9.80;99.90;;;;;;2075104;28;20021;-74
2023/02/21 02:21:25;;;;;;;7.65;4.80;;;9.80;99.90;;;;;;2077449;28;20025;-74
2023/02/21 02:23:11;;;;;;;6.72;4.75;;;9.80;99.90;;;;;;2074217;28;20034;-73
2023/02/21 02:24:26;;;;;;;6.55;4.72;;;9.80;99.90;;;;;;2067246;28;20048;-74
2023/02/21 02:25:49;;;;;;;5.78;4.40;;;9.80;99.90;;;;;;2079000;28;20041;-73
2023/02/21 02:27:26;;;;;;;7.10;5.10;;;9.80;99.90;;;;;;2074316;28;20036;-74
2023/02/21 02:28:51;;;;;;;6.63;4.80;;;9.80;99.90;;;;;;2091010;28;20044;-73
2023/02/21 02:30:15;;;;;;;5.80;4.78;;;9.80;99.90;;;;;;2085100;28;20132;-73
2023/02/21 02:31:27;;;;;;;6.28;4.65;;;9.80;99.90;;;;;;2076274;28;20056;-73
2023/02/21 02:32:54;;;;;;;6.25;4.68;;;9.80;99.90;;;;;;2075042;28;20231;-74
2023/02/21 02:34:27;;;;;;;6.13;4.57;;;9.80;99.90;;;;;;2073989;28;20029;-73
2023/02/21 02:35:34;;;;;;;6.30;4.50;;;9.90;99.90;;;;;;2070026;28;20046;-73
2023/02/21 02:36:42;;;;;;;6.15;4.75;;;9.90;99.90;;;;;;2078103;28;20096;-73
2023/02/21 02:37:58;;;;;;;5.95;4.38;;;9.90;99.90;;;;;;2074277;28;20389;-74
2023/02/21 02:39:22;;;;;;;5.55;4.18;;;9.90;99.90;;;;;;2071252;28;20049;-74
2023/02/21 02:40:54;;;;;;;6.40;4.30;;;9.90;99.90;;;;;;2069273;28;20025;-74
2023/02/21 02:42:03;;;;;;;6.55;4.47;;;9.90;99.90;;;;;;2075633;28;20025;-74
2023/02/21 02:43:27;;;;;;;6.50;4.63;;;9.90;99.90;;;;;;2089807;28;20384;-74
2023/02/21 02:44:38;;;;;;;6.75;4.50;;;9.90;99.90;;;;;;2085113;28;20277;-73
2023/02/21 02:45:57;;;;;;;6.13;4.60;;;9.90;99.90;;;;;;2083693;28;20040;-75
2023/02/21 02:47:01;;;;;;;7.35;4.40;;;9.90;99.90;;;;;;2070367;28;20060;-75
2023/02/21 02:48:16;;;;;;;8.75;4.47;;;9.90;99.90;;;;;;2059152;28;20034;-74
2023/02/21 02:49:20;;;;;;;5.78;4.40;;;9.90;99.90;;;;;;2084257;28;20033;-74
2023/02/21 02:50:24;;;;;;;5.97;4.50;;;9.90;99.90;;;;;;2089519;28;20031;-73
2023/02/21 02:51:27;;;;;;;6.63;4.43;;;9.90;99.90;;;;;;2078826;28;20552;-73
2023/02/21 02:52:30;;;;;;;6.78;4.60;;;9.90;99.90;;;;;;2078716;28;20032;-73
2023/02/21 02:53:32;;;;;;;6.78;4.20;;;9.90;99.90;;;;;;2079580;28;20260;-73
2023/02/21 02:54:33;;;;;;;7.35;4.88;;;9.90;99.90;;;;;;2077295;28;20037;-74
2023/02/21 02:55:47;;;;;;;6.25;4.20;;;9.90;99.90;;;;;;2085245;28;21764;-74
2023/02/21 02:56:48;;;;;;;6.68;4.22;;;9.90;99.90;;;;;;2083479;28;20113;-74
2023/02/21 02:57:50;;;;;;;7.18;4.47;;;9.90;99.90;;;;;;2085271;28;20037;-73
2023/02/21 02:59:00;;;;;;;6.35;4.50;;;9.90;99.90;;;;;;2084941;28;20013;-74
2023/02/21 03:00:01;;;;;;;8.68;4.30;;;9.90;99.90;;;;;;2077197;28;20029;-73
2023/02/21 03:01:40;;;;;;;5.43;4.28;;;9.90;99.90;;;;;;2087843;28;20660;-75
2023/02/21 03:02:59;;;;;;;6.65;4.60;;;9.80;99.90;;;;;;2083555;28;20020;-74
2023/02/21 03:04:14;;;;;;;6.80;4.53;;;9.80;99.90;;;;;;2084412;28;20056;-74
2023/02/21 03:05:33;;;;;;;5.75;4.35;;;9.80;99.90;;;;;;2078182;28;20526;-74
2023/02/21 03:06:57;;;;;;;6.40;4.55;;;9.80;99.90;;;;;;2077960;28;20539;-74
2023/02/21 03:08:09;;;;;;;6.65;4.35;;;9.80;99.90;;;;;;2083812;28;20026;-74
2023/02/21 03:09:36;;;;;;;5.80;4.45;;;9.80;99.90;;;;;;2083618;28;20025;-75
2023/02/21 03:10:53;;;;;;;7.65;4.80;;;9.90;99.90;;;;;;2075380;28;20040;-74
2023/02/21 03:12:17;;;;;;;7.25;4.80;;;9.90;99.90;;;;;;2078827;28;20017;-74
2023/02/21 03:13:32;;;;;;;5.88;4.20;;;9.80;99.90;;;;;;2078769;28;20160;-74
2023/02/21 03:14:45;;;;;;;6.05;4.32;;;9.80;99.90;;;;;;2081115;28;20136;-74
2023/02/21 03:15:59;;;;;;;6.70;4.97;;;9.80;99.90;;;;;;2078361;28;20211;-74
2023/02/21 03:17:09;;;;;;;7.13;4.85;;;9.80;99.90;;;;;;2075505;28;20029;-74
2023/02/21 03:18:47;;;;;;;7.57;5.28;;;9.80;99.90;;;;;;2076342;28;20044;-73
2023/02/21 03:19:50;;;;;;;6.30;4.28;;;9.80;99.90;;;;;;2075225;28;20774;-74
2023/02/21 03:20:56;;;;;;;7.68;4.65;;;9.90;99.90;;;;;;2093903;28;20485;-74
2023/02/21 03:22:01;;;;;;;6.85;4.57;;;9.90;99.90;;;;;;2084559;28;20614;-74
2023/02/21 03:23:03;;;;;;;6.30;4.85;;;9.80;99.90;;;;;;2085425;28;20410;-74
2023/02/21 03:24:07;;;;;;;6.50;4.93;;;9.80;99.90;;;;;;2093096;28;20047;-72
2023/02/21 03:25:08;;;;;;;7.10;4.82;;;9.80;99.90;;;;;;2093263;28;20071;-73
2023/02/21 03:26:13;;;;;;;6.78;4.80;;;9.80;99.90;;;;;;2079018;28;20036;-73
2023/02/21 03:27:21;;;;;;;7.50;5.03;;;9.80;99.90;;;;;;2073087;28;20022;-74
2023/02/21 03:28:34;;;;;;;6.43;4.90;;;9.90;99.90;;;;;;2075761;28;20544;-73
2023/02/21 03:29:36;;;;;;;7.03;4.93;;;9.90;99.90;;;;;;2087601;28;20025;-74
2023/02/21 03:30:40;;;;;;;6.28;4.82;;;9.90;99.90;;;;;;2075545;28;20079;-73
2023/02/21 03:31:57;;;;;;;8.35;5.47;;;9.90;99.90;;;;;;2079409;28;20741;-73
2023/02/21 03:32:57;;;;;;;6.80;4.97;;;9.90;99.90;;;;;;2083454;28;20071;-74
2023/02/21 03:33:58;;;;;;;8.30;4.95;;;9.90;99.90;;;;;;2084769;28;20021;-73
2023/02/21 03:35:02;;;;;;;6.60;5.00;;;9.90;99.90;;;;;;2091219;28;20024;-75
2023/02/21 03:36:04;;;;;;;7.28;5.22;;;9.90;99.90;;;;;;2099653;28;20118;-71
2023/02/21 03:37:07;;;;;;;7.57;5.22;;;9.90;99.90;;;;;;2083744;28;20509;-75
2023/02/21 03:38:09;;;;;;;6.53;4.75;;;9.90;99.90;;;;;;2071810;28;20029;-74
2023/02/21 03:39:10;;;;;;;7.60;5.35;;;9.90;99.90;;;;;;2086142;28;20138;-74
2023/02/21 03:40:18;;;;;;;7.50;5.07;;;10.00;99.90;;;;;;2085189;28;20499;-75
2023/02/21 03:41:22;;;;;;;6.93;4.78;;;9.90;99.90;;;;;;2076746;28;20543;-75
2023/02/21 03:42:22;;;;;;;8.80;5.00;;;9.90;99.90;;;;;;2086204;28;20385;-73
2023/02/21 03:43:24;;;;;;;6.72;5.13;;;9.90;99.90;;;;;;2093353;28;20039;-74
2023/02/21 03:44:30;;;;;;;6.90;5.20;;;9.90;99.90;;;;;;2085797;28;20076;-73
2023/02/21 03:45:32;;;;;;;6.55;4.78;;;9.90;99.90;;;;;;2080066;28;20037;-73
2023/02/21 03:46:39;;;;;;;10.57;5.35;;;9.90;99.90;;;;;;2074524;28;20031;-74
2023/02/21 03:47:40;;;;;;;9.57;5.60;;;9.90;99.90;;;;;;2085880;28;20031;-73
2023/02/21 03:48:40;;;;;;;7.43;5.07;;;9.90;99.90;;;;;;2086145;28;20036;-74
2023/02/21 03:49:54;;;;;;;8.13;5.20;;;9.90;99.90;;;;;;2086331;28;20039;-73
2023/02/21 03:50:54;;;;;;;7.03;5.10;;;10.00;99.90;;;;;;2086244;28;20613;-73
2023/02/21 03:51:58;;;;;;;8.32;5.43;;;10.00;99.90;;;;;;2078914;28;20166;-74
2023/02/21 03:52:59;;;;;;;7.10;4.97;;;10.00;99.90;;;;;;2077002;28;20037;-73
2023/02/21 03:54:00;;;;;;;7.40;5.05;;;10.00;99.90;;;;;;2068896;28;20022;-74
2023/02/21 03:55:08;;;;;;;8.88;5.55;;;10.00;99.90;;;;;;2069550;28;20481;-73
2023/02/21 03:56:09;;;;;;;7.25;5.10;;;10.00;99.90;;;;;;2068196;28;20091;-74
2023/02/21 03:57:29;;;;;;;8.50;5.50;;;10.00;99.90;;;;;;2070007;28;20398;-74
2023/02/21 03:58:29;;;;;;;7.55;5.40;;;10.00;99.90;;;;;;2087264;28;20120;-74
2023/02/21 03:59:30;;;;;;;8.77;5.70;;;10.00;99.90;;;;;;2095645;28;20464;-74
2023/02/21 04:00:31;;;;;;;7.72;5.53;;;10.00;99.90;;;;;;2078133;28;20419;-74
2023/02/21 04:01:31;;;;;;;8.68;5.55;;;10.00;99.90;;;;;;2077768;28;20043;-74
2023/02/21 04:02:33;;;;;;;7.65;5.35;;;9.90;99.90;;;;;;2077735;28;20031;-75
2023/02/21 04:03:33;;;;;;;8.40;5.57;;;9.90;99.90;;;;;;2085759;28;20059;-73
2023/02/21 04:04:37;;;;;;;8.55;5.57;;;9.90;99.90;;;;;;2077614;28;20043;-73
2023/02/21 04:05:42;;;;;;;8.15;5.43;;;9.90;99.90;;;;;;2069740;28;20271;-73
2023/02/21 04:06:43;;;;;;;7.93;5.65;;;9.90;99.90;;;;;;2086409;28;20029;-74
2023/02/21 04:07:45;;;;;;;6.97;5.07;;;9.90;99.90;;;;;;2086964;28;20093;-72
2023/02/21 04:08:46;;;;;;;9.85;5.60;;;9.90;99.90;;;;;;2089103;28;20040;-75
2023/02/21 04:09:47;;;;;;;7.63;5.55;;;9.90;99.90;;;;;;2084758;28;20025;-73
2023/02/21 04:10:53;;;;;;;7.88;5.47;;;9.90;99.90;;;;;;2069255;28;20037;-74
2023/02/21 04:11:56;;;;;;;7.32;5.43;;;9.90;99.90;;;;;;2075357;28;20026;-74
2023/02/21 04:12:57;;;;;;;7.50;5.47;;;9.90;99.90;;;;;;2070020;28;20034;-74
2023/02/21 04:13:57;;;;;;;7.70;5.68;;;9.90;99.90;;;;;;2086103;28;20118;-75
2023/02/21 04:14:58;;;;;;;8.43;5.88;;;9.90;99.90;;;;;;2094420;28;20043;-75
2023/02/21 04:15:59;;;;;;;7.57;5.43;;;9.90;99.90;;;;;;2086511;28;20465;-74
2023/02/21 04:16:59;;;;;;;8.25;5.63;;;9.90;99.90;;;;;;2078938;28;20021;-75
2023/02/21 04:18:00;;;;;;;9.20;6.05;;;10.00;99.90;;;;;;2068402;28;20621;-73
2023/02/21 04:19:01;;;;;;;9.57;6.43;;;10.00;99.90;;;;;;2067905;28;20030;-74
2023/02/21 04:20:03;;;;;;;9.13;5.93;;;10.00;99.90;;;;;;2087208;28;20033;-73
2023/02/21 04:21:05;;;;;;;8.68;5.72;;;10.00;99.90;;;;;;2079059;28;20697;-73
2023/02/21 04:22:06;;;;;;;8.77;5.80;;;10.00;99.90;;;;;;2069417;28;20550;-73
2023/02/21 04:23:08;;;;;;;8.10;5.78;;;10.00;99.90;;;;;;2075838;28;20683;-73
2023/02/21 04:24:10;;;;;;;9.15;6.65;;;10.00;99.90;;;;;;2079838;28;20033;-73
2023/02/21 04:25:11;;;;;;;9.77;6.88;;;10.00;99.90;;;;;;2077984;28;20557;-73
2023/02/21 04:26:23;;;;;;;10.05;6.78;;;10.00;99.90;;;;;;2084466;28;20090;-73
2023/02/21 04:27:25;;;;;;;9.18;6.30;;;10.00;99.90;;;;;;2077735;28;20094;-74
2023/02/21 04:28:29;;;;;;;10.23;7.15;;;10.00;99.90;;;;;;2082034;28;20068;-73
2023/02/21 04:29:30;;;;;;;10.07;6.28;;;10.00;99.90;;;;;;2067884;28;20061;-74
2023/02/21 04:30:30;;;;;;;9.07;6.40;;;10.00;99.90;;;;;;2076436;28;20045;-74
2023/02/21 04:31:31;;;;;;;10.15;7.20;;;10.00;99.90;;;;;;2095473;28;20121;-73
2023/02/21 04:32:35;;;;;;;10.05;7.10;;;10.00;99.90;;;;;;2079318;28;20041;-73
2023/02/21 04:33:41;;;;;;;10.38;6.97;;;10.00;99.90;;;;;;2082274;28;20458;-74
2023/02/21 04:34:43;;;;;;;10.38;7.15;;;10.00;99.90;;;;;;2082007;28;20430;-74
2023/02/21 04:35:44;;;;;;;10.40;6.95;;;10.00;99.90;;;;;;2083332;28;20021;-74
2023/02/21 04:36:54;;;;;;;10.18;7.20;;;10.00;99.90;;;;;;2083232;28;20046;-73
2023/02/21 04:37:55;;;;;;;10.27;7.25;;;10.00;99.90;;;;;;2081011;28;20245;-72
2023/02/21 04:38:58;;;;;;;9.88;7.20;;;10.00;99.90;;;;;;2075062;28;20544;-73
2023/02/21 04:39:58;;;;;;;11.02;7.25;;;10.00;99.90;;;;;;2068733;28;20076;-73
2023/02/21 04:40:59;;;;;;;10.57;7.15;;;10.00;99.90;;;;;;2092924;28;20518;-73
2023/02/21 04:41:59;;;;;;;10.93;6.95;;;10.00;99.90;;;;;;2093016;28;20047;-73
2023/02/21 04:43:00;;;;;;;10.65;7.32;;;10.00;99.90;;;;;;2079070;28;20033;-73
2023/02/21 04:44:00;;;;;;;11.55;7.43;;;10.00;99.90;;;;;;2077490;28;20045;-73
2023/02/21 04:45:05;;;;;;;10.15;7.03;;;10.00;99.90;;;;;;2063422;28;20040;-73
2023/02/21 04:46:06;;;;;;;12.55;7.43;;;10.00;99.90;;;;;;2074375;28;20067;-73
2023/02/21 04:47:07;;;;;;;12.20;7.50;;;10.00;99.90;;;;;;2094080;28;20499;-73
2023/02/21 04:48:07;;;;;;;11.32;7.75;;;10.00;99.90;;;;;;2085798;28;20020;-73
2023/02/21 04:49:11;;;;;;;11.30;7.82;;;10.00;99.90;;;;;;2084153;28;20094;-74
2023/02/21 04:50:12;;;;;;;11.02;7.60;;;10.00;99.90;;;;;;2091367;28;20255;-74
2023/02/21 04:51:13;;;;;;;11.13;7.70;;;10.00;99.90;;;;;;2076592;28;20040;-74
2023/02/21 04:52:14;;;;;;;10.43;7.38;;;10.00;99.90;;;;;;2080617;28;20537;-74
2023/02/21 04:53:15;;;;;;;11.52;7.78;;;10.00;99.90;;;;;;2078626;28;20079;-74
2023/02/21 04:54:15;;;;;;;11.52;7.50;;;10.00;99.90;;;;;;2079629;28;20057;-75
2023/02/21 04:55:16;;;;;;;10.88;7.70;;;10.00;99.90;;;;;;2085501;28;20607;-76
2023/02/21 04:56:21;;;;;;;10.43;7.47;;;10.00;99.90;;;;;;2093897;28;20095;-76
2023/02/21 04:57:22;;;;;;;12.68;7.90;;;10.00;99.90;;;;;;2077759;28;20048;-74
2023/02/21 04:58:23;;;;;;;13.07;7.95;;;10.00;99.90;;;;;;2077974;28;20443;-75
2023/02/21 04:59:23;;;;;;;12.75;7.85;;;10.10;99.90;;;;;;2079522;28;20417;-75
2023/02/21 05:00:24;;;;;;;11.00;7.65;;;10.00;99.90;;;;;;2077210;28;20032;-74
2023/02/21 05:01:29;;;;;;;13.23;8.52;;;10.00;99.90;;;;;;2077382;28;20581;-75
2023/02/21 05:02:29;;;;;;;12.48;8.13;;;10.00;99.90;;;;;;2076572;28;20037;-75
2023/02/21 05:03:30;;;;;;;12.68;8.05;;;10.10;99.90;;;;;;2068827;28;20034;-75
2023/02/21 05:04:31;;;;;;;12.07;8.45;;;10.10;99.90;;;;;;2079578;28;20022;-75
2023/02/21 05:05:32;;;;;;;12.38;8.50;;;10.10;99.90;;;;;;2077394;28;20032;-74
2023/02/21 05:06:32;;;;;;;12.90;8.27;;;10.10;99.90;;;;;;2085882;28;20517;-75
2023/02/21 05:07:33;;;;;;;12.73;8.77;;;10.00;99.90;;;;;;2085930;28;20074;-74
2023/02/21 05:08:35;;;;;;;13.07;8.70;;;10.00;99.90;;;;;;2079427;28;20037;-74
2023/02/21 05:09:35;;;;;;;12.10;8.63;;;10.00;99.90;;;;;;2086618;28;20576;-73
2023/02/21 05:10:36;;;;;;;12.10;8.88;;;10.00;99.90;;;;;;2084697;28;20066;-75
2023/02/21 05:11:36;;;;;;;16.45;8.80;;;10.00;99.90;;;;;;2080890;28;20037;-72
2023/02/21 05:12:38;;;;;;;11.98;8.15;;;10.00;99.90;;;;;;2079695;28;20053;-73
2023/02/21 05:13:39;;;;;;;13.27;8.60;;;10.00;99.90;;;;;;2078442;28;20033;-73
2023/02/21 05:14:40;;;;;;;13.00;8.38;;;10.00;99.90;;;;;;2082835;28;20039;-74
2023/02/21 05:15:41;;;;;;;12.80;8.50;;;10.10;99.90;;;;;;2095717;28;20067;-75
2023/02/21 05:16:42;;;;;;;11.73;8.40;;;10.00;99.90;;;;;;2079542;28;20515;-74
2023/02/21 05:17:43;;;;;;;13.15;9.25;;;10.00;99.90;;;;;;2088440;28;20027;-72
2023/02/21 05:18:45;;;;;;;11.63;8.10;;;10.00;99.90;;;;;;2094099;28;20036;-71
2023/02/21 05:19:46;;;;;;;13.10;8.88;;;10.00;99.90;;;;;;2077014;28;20036;-72
2023/02/21 05:20:50;;;;;;;12.82;8.40;;;10.00;99.90;;;;;;2074829;28;20109;-72
2023/02/21 05:21:51;;;;;;;12.77;8.57;;;10.00;99.90;;;;;;2081537;28;20037;-73
2023/02/21 05:22:52;;;;;;;15.32;8.40;;;10.00;99.90;;;;;;2077854;28;20599;-73
2023/02/21 05:23:55;;;;;;;14.75;9.02;;;10.00;99.90;;;;;;2079327;28;20216;-73
2023/02/21 05:24:56;;;;;;;11.52;8.20;;;10.00;99.90;;;;;;2095871;28;20143;-72
2023/02/21 05:25:56;;;;;;;14.27;8.80;;;10.00;99.90;;;;;;2097090;28;20616;-72
2023/02/21 05:26:58;;;;;;;12.50;8.50;;;10.10;99.90;;;;;;2078606;28;20071;-74
2023/02/21 05:27:58;;;;;;;12.00;8.60;;;10.10;99.90;;;;;;2079090;28;20091;-72
2023/02/21 05:28:59;;;;;;;14.73;8.85;;;10.10;99.90;;;;;;2077985;28;20029;-72
2023/02/21 05:29:59;;;;;;;13.98;8.75;;;10.10;99.90;;;;;;2086249;28;20508;-72
2023/02/21 05:31:00;;;;;;;13.00;8.45;;;10.10;99.90;;;;;;2094762;28;20025;-73
2023/02/21 05:32:01;;;;;;;13.32;8.60;;;10.10;99.90;;;;;;2080710;28;20493;-72
2023/02/21 05:33:01;;;;;;;12.63;8.90;;;10.10;99.90;;;;;;2080940;28;20432;-72
2023/02/21 05:34:02;;;;;;;14.73;9.45;;;10.10;99.90;;;;;;2079106;28;20432;-79
2023/02/21 05:35:03;;;;;;;12.20;8.23;;;10.10;99.90;;;;;;2082353;28;20044;-73
2023/02/21 05:36:04;;;;;;;13.82;8.88;;;10.10;99.90;;;;;;2084265;28;20038;-73
2023/02/21 05:37:05;;;;;;;12.18;8.00;;;10.10;99.90;;;;;;2080667;28;20126;-74
2023/02/21 05:38:05;;;;;;;12.48;8.85;;;10.10;99.90;;;;;;2078143;28;20025;-74
2023/02/21 05:39:07;;;;;;;14.45;8.88;;;10.10;99.90;;;;;;2078443;28;20032;-74
2023/02/21 05:40:10;;;;;;;13.18;8.52;;;10.10;99.90;;;;;;2078142;28;20424;-73
2023/02/21 05:41:11;;;;;;;14.00;8.48;;;10.10;99.90;;;;;;2078125;28;20028;-72
2023/02/21 05:42:12;;;;;;;13.00;8.45;;;10.10;99.90;;;;;;2080522;28;20060;-73
2023/02/21 05:43:13;;;;;;;12.93;8.50;;;10.10;99.90;;;;;;2087633;28;20037;-72
2023/02/21 05:44:13;;;;;;;13.70;8.98;;;10.10;99.90;;;;;;2091771;28;20040;-73
2023/02/21 05:45:14;;;;;;;14.23;8.68;;;10.10;99.90;;;;;;2075680;28;20033;-73
2023/02/21 05:46:30;;;;;;;11.98;8.43;;;10.20;99.90;;;;;;2088087;28;20020;-73
2023/02/21 05:47:32;;;;;;;15.30;9.30;;;10.10;99.90;;;;;;2087284;28;20036;-74
2023/02/21 05:48:33;;;;;;;13.10;8.82;;;10.10;99.90;;;;;;2080361;28;20128;-74
2023/02/21 05:49:33;;;;;;;14.80;9.10;;;10.10;99.90;;;;;;2078269;28;20241;-72
2023/02/21 05:50:34;;;;;;;13.25;9.40;;;10.10;99.90;;;;;;2076653;28;20045;-72
2023/02/21 05:51:37;;;;;;;13.73;8.93;;;10.20;99.90;;;;;;2080226;28;20100;-72
2023/02/21 05:52:38;;;;;;;14.95;9.10;;;10.20;99.90;;;;;;2080658;28;20107;-73
2023/02/21 05:53:38;;;;;;;12.60;8.55;;;10.20;99.90;;;;;;2079787;28;20037;-70
2023/02/21 05:54:39;;;;;;;15.68;9.90;;;10.20;99.90;;;;;;2079744;28;20029;-70
2023/02/21 05:55:39;;;;;;;14.15;9.23;;;10.10;99.90;;;;;;2079811;28;20033;-69
2023/02/21 05:56:41;;;;;;;13.13;9.00;;;10.20;99.90;;;;;;2080149;28;20115;-70
2023/02/21 05:57:42;;;;;;;14.52;9.43;;;10.20;99.90;;;;;;2077724;28;20029;-70
2023/02/21 05:58:42;;;;;;;14.85;10.18;;;10.10;99.90;;;;;;2078327;28;20547;-70
2023/02/21 05:59:43;;;;;;;15.13;9.13;;;10.10;99.90;;;;;;2078679;28;20570;-70
2023/02/21 06:00:43;;;;;;;14.63;9.73;;;10.10;99.90;;;;;;2080761;28;20035;-71
2023/02/21 06:01:45;;;;;;;15.55;9.32;;;10.10;99.90;;;;;;2079874;28;20550;-69
2023/02/21 06:02:45;;;;;;;15.90;9.82;;;10.10;99.90;;;;;;2079984;28;20462;-69
2023/02/21 06:03:46;;;;;;;14.18;9.35;;;10.10;99.90;;;;;;2078537;28;20040;-70
2023/02/21 06:04:47;;;;;;;13.98;9.48;;;10.10;99.90;;;;;;2078746;28;20499;-70
2023/02/21 06:05:48;;;;;;;14.85;9.50;;;10.10;99.90;;;;;;2076376;28;20343;-70
2023/02/21 06:06:49;;;;;;;15.48;9.77;;;10.10;99.90;;;;;;2078323;28;20613;-70
2023/02/21 06:07:50;;;;;;;15.57;9.60;;;10.10;99.90;;;;;;2077415;28;20034;-70
2023/02/21 06:08:51;;;;;;;14.43;10.00;;;10.10;99.90;;;;;;2078122;28;20183;-70
2023/02/21 06:09:51;;;;;;;13.88;9.77;;;10.10;99.90;;;;;;2079537;28;20116;-70
2023/02/21 06:10:52;;;;;;;16.23;9.77;;;10.10;99.90;;;;;;2079031;28;20574;-69
2023/02/21 06:11:56;;;;;;;15.82;10.25;;;10.10;99.90;;;;;;2077064;28;20108;-69
2023/02/21 06:12:56;;;;;;;15.15;9.98;;;10.10;99.90;;;;;;2081982;28;20017;-70
2023/02/21 06:13:58;;;;;;;13.30;9.43;;;10.20;99.90;;;;;;2079002;28;20025;-69
2023/02/21 06:14:58;;;;;;;12.98;9.13;;;10.20;99.90;;;;;;2079033;28;20041;-69
2023/02/21 06:15:59;;;;;;;14.05;9.90;;;10.20;99.90;;;;;;2080517;28;20299;-69
2023/02/21 06:17:01;;;;;;;15.90;10.18;;;10.20;99.90;;;;;;2078076;28;20596;-69
2023/02/21 06:18:02;;;;;;;15.23;9.80;;;10.20;99.90;;;;;;2077980;28;20079;-70
2023/02/21 06:19:04;;;;;;;14.90;9.40;;;10.20;99.90;;;;;;2077695;28;20516;-69
2023/02/21 06:20:06;;;;;;;14.75;9.98;;;10.20;99.90;;;;;;2078659;28;20307;-69
2023/02/21 06:21:07;;;;;;;14.80;9.88;;;10.20;99.90;;;;;;2078734;28;20495;-69
2023/02/21 06:22:07;;;;;;;13.85;9.68;;;10.20;99.90;;;;;;2077762;28;20021;-69
2023/02/21 06:23:08;;;;;;;15.68;9.45;;;10.20;99.90;;;;;;2080347;28;20060;-69
2023/02/21 06:24:10;;;;;;;15.07;9.77;;;10.20;99.90;;;;;;2082210;28;20041;-69
2023/02/21 06:25:10;;;;;;;15.32;9.95;;;10.20;99.90;;;;;;2074280;28;20026;-69
2023/02/21 06:26:11;;;;;;;17.02;10.27;;;10.10;99.90;;;;;;2080481;28;20040;-69
2023/02/21 06:27:12;;;;;;;13.80;9.02;;;10.10;99.90;;;;;;2079012;28;20017;-68
2023/02/21 06:28:12;;;;;;;15.55;10.10;;;10.10;99.90;;;;;;2077751;28;20103;-68
2023/02/21 06:29:13;;;;;;;15.10;9.95;;;10.10;99.90;;;;;;2078386;28;20570;-72
2023/02/21 06:30:14;;;;;;;17.13;10.13;;;10.10;99.90;;;;;;2078265;28;20030;-71
2023/02/21 06:31:16;;;;;;;14.70;10.27;;;10.10;99.90;;;;;;2080858;28;20471;-70
2023/02/21 06:32:16;;;;;;;15.77;10.75;;;10.10;99.90;;;;;;2095197;28;20492;-73
2023/02/21 06:33:17;;;;;;;15.57;10.27;;;10.10;99.90;;;;;;2087306;28;20028;-73
2023/02/21 06:34:17;;;;;;;15.07;10.05;;;10.10;99.90;;;;;;2086920;28;20025;-71
2023/02/21 06:35:18;;;;;;;17.10;10.07;;;10.10;99.90;;;;;;2096426;28;20494;-71
2023/02/21 06:36:24;;;;;;;15.55;10.73;;;10.10;99.90;;;;;;2075413;28;20029;-72
2023/02/21 06:37:25;;;;;;;16.23;9.63;;;10.10;99.90;;;;;;2077152;28;20480;-72
2023/02/21 06:38:25;;;;;;;16.05;10.15;;;10.10;99.90;;;;;;2085220;28;20033;-68
2023/02/21 06:39:26;;;;;;;16.60;10.13;;;10.20;99.90;;;;;;2077481;28;20590;-69
2023/02/21 06:40:26;;;;;;;15.40;10.50;;;10.20;99.90;;;;;;2063544;28;20101;-70
2023/02/21 06:41:28;;;;;;;16.98;10.20;;;10.20;99.90;;;;;;2078673;28;20407;-72
2023/02/21 06:42:29;;;;;;;15.85;9.80;;;10.20;99.90;;;;;;2079518;28;20309;-76
2023/02/21 06:43:30;;;;;;;16.27;10.52;;;10.20;99.90;;;;;;2078206;28;20057;-72
2023/02/21 06:44:30;;;;;;;16.55;10.05;;;10.20;99.90;;;;;;2070180;28;20091;-73
2023/02/21 06:45:31;;;;;;;15.60;10.10;;;10.20;99.90;;;;;;2071856;28;20075;-72
2023/02/21 06:46:31;;;;;;;15.32;10.00;;;10.20;99.90;;;;;;2076073;28;20036;-70
2023/02/21 06:47:32;;;;;;;14.38;9.60;;;10.20;99.90;;;;;;2077865;28;20112;-70
2023/02/21 06:48:33;;;;;;;15.68;10.07;;;10.20;99.90;;;;;;2076993;28;20034;-70
2023/02/21 06:49:34;;;;;;;16.15;10.00;;;10.20;99.90;;;;;;2080141;28;20133;-71
2023/02/21 06:50:35;;;;;;;16.45;10.43;;;10.20;99.90;;;;;;2086787;28;20039;-73
2023/02/21 06:51:39;;;;;;;16.02;10.23;;;10.20;99.90;;;;;;2078538;28;20056;-70
2023/02/21 06:52:39;;;;;;;15.32;10.23;;;10.20;99.90;;;;;;2079528;28;20025;-81
2023/02/21 06:53:41;;;;;;;17.33;10.77;;;10.20;99.90;;;;;;2080783;28;20029;-78
2023/02/21 06:54:41;;;;;;;17.95;10.82;;;10.20;99.90;;;;;;2079393;28;20040;-77
2023/02/21 06:55:42;;;;;;;16.38;10.07;;;10.20;99.90;;;;;;2077848;28;20396;-70
2023/02/21 06:56:43;;;;;;;16.15;10.15;;;10.30;99.90;;;;;;2078377;28;20115;-74
2023/02/21 06:57:44;;;;;;;16.13;10.45;;;10.20;99.90;;;;;;2080963;28;20379;-76
2023/02/21 06:58:44;;;;;;;15.63;9.95;;;10.20;99.90;;;;;;2079542;28;20163;-79
2023/02/21 06:59:45;;;;;;;15.45;9.52;;;10.30;99.90;;;;;;2080631;28;20269;-77
2023/02/21 07:00:45;;;;;;;16.02;10.27;;;10.30;99.90;;;;;;2081706;28;20017;-75
2023/02/21 07:01:46;;;;;;;17.90;10.35;;;10.20;99.90;;;;;;2077682;28;20535;-77
2023/02/21 07:02:46;;;;;;;15.98;10.43;;;10.20;99.90;;;;;;2070329;28;20036;-77
2023/02/21 07:03:47;;;;;;;15.27;9.80;;;10.20;99.90;;;;;;2079887;28;20162;-77
2023/02/21 07:04:48;;;;;;;16.42;10.00;;;10.20;99.90;;;;;;2082586;28;20543;-73
2023/02/21 07:05:48;;;;;;;16.40;10.25;;;10.20;99.90;;;;;;2081785;28;20031;-74
2023/02/21 07:06:49;;;;;;;14.95;10.13;;;10.20;99.90;;;;;;2071055;28;20034;-73
2023/02/21 07:07:49;;;;;;;15.63;10.30;;;10.20;99.90;;;;;;2086216;28;20021;-74
2023/02/21 07:08:50;;;;;;;16.50;10.18;;;10.20;99.90;;;;;;2088591;28;21087;-77
2023/02/21 07:09:50;;;;;;;16.75;10.35;;;10.20;99.90;;;;;;2076788;28;20022;-75
2023/02/21 07:10:51;;;;;;;16.63;10.73;;;10.20;99.90;;;;;;2078659;28;20645;-75
2023/02/21 07:11:52;;;;;;;17.20;10.38;;;10.20;99.90;;;;;;2076383;28;20029;-79
2023/02/21 07:12:52;;;;;;;16.08;10.35;;;10.30;99.90;;;;;;2081541;28;20025;-77
2023/02/21 07:13:55;;;;;;;16.02;11.50;;;10.30;99.90;;;;;;2071251;28;20295;-78
2023/02/21 07:14:56;;;;;;;17.73;10.48;;;10.30;99.90;;;;;;2080531;28;20455;-82
2023/02/21 07:15:56;;;;;;;16.20;9.90;;;10.30;99.90;;;;;;2095014;28;20039;-75
2023/02/21 07:16:57;;;;;;;15.27;10.35;;;10.30;99.90;;;;;;2095402;28;20028;-76
2023/02/21 07:17:58;;;;;;;14.73;10.18;;;10.30;99.90;;;;;;2079676;28;20028;-77
2023/02/21 07:18:58;;;;;;;19.20;10.73;;;10.30;99.90;;;;;;2074473;28;20040;-77
2023/02/21 07:19:59;;;;;;;24.20;16.27;;;10.30;99.90;;;;;;2077800;28;20068;-77
2023/02/21 07:20:59;;;;;;;22.15;13.73;;;10.30;99.90;;;;;;2084241;28;20021;-77
2023/02/21 07:22:00;;;;;;;17.73;11.23;;;10.30;99.90;;;;;;2077951;28;20063;-77
2023/02/21 07:23:00;;;;;;;17.05;11.18;;;10.30;99.90;;;;;;2082609;28;20246;-77
2023/02/21 07:24:01;;;;;;;16.10;10.80;;;10.30;99.90;;;;;;2079146;28;20091;-75
2023/02/21 07:25:02;;;;;;;18.08;10.95;;;10.30;99.90;;;;;;2080481;28;20095;-76
2023/02/21 07:26:03;;;;;;;17.30;10.95;;;10.40;99.90;;;;;;2080411;28;20033;-76
2023/02/21 07:27:04;;;;;;;19.52;11.50;;;10.30;99.90;;;;;;2081121;28;20033;-77
2023/02/21 07:28:04;;;;;;;16.23;11.13;;;10.30;99.90;;;;;;2073499;28;20129;-77
2023/02/21 07:29:05;;;;;;;17.27;10.98;;;10.30;99.90;;;;;;2088117;28;20054;-77
2023/02/21 07:30:06;;;;;;;16.15;10.63;;;10.30;99.90;;;;;;2094264;28;20047;-75
2023/02/21 07:31:07;;;;;;;17.48;11.57;;;10.40;99.90;;;;;;2090043;28;20511;-77
2023/02/21 07:32:07;;;;;;;18.30;11.63;;;10.40;99.90;;;;;;2091539;28;20036;-77
2023/02/21 07:33:08;;;;;;;20.02;11.50;;;10.40;99.90;;;;;;2082252;28;20028;-77
2023/02/21 07:34:11;;;;;;;17.80;11.48;;;10.40;99.90;;;;;;2080681;28;20032;-77
2023/02/21 07:35:11;;;;;;;18.33;11.43;;;10.30;99.90;;;;;;2081738;28;20029;-77
2023/02/21 07:36:12;;;;;;;17.33;11.70;;;10.30;99.90;;;;;;2080893;28;20170;-77
2023/02/21 07:37:13;;;;;;;18.35;11.88;;;10.30;99.90;;;;;;2077750;28;20029;-77
2023/02/21 07:38:25;;;;;;;17.38;12.25;;;10.40;99.90;;;;;;2088044;28;20067;-78
2023/02/21 07:39:26;;;;;;;19.98;11.82;;;10.30;99.90;;;;;;2091795;28;20024;-78
2023/02/21 07:40:26;;;;;;;18.90;11.45;;;10.30;99.90;;;;;;2078647;28;20033;-76
2023/02/21 07:41:27;;;;;;;18.63;11.65;;;10.30;99.90;;;;;;2084435;28;20106;-78
2023/02/21 07:42:27;;;;;;;16.75;11.30;;;10.30;99.90;;;;;;2081302;28;20106;-78
2023/02/21 07:43:29;;;;;;;18.95;11.73;;;10.30;99.90;;;;;;2076399;28;20030;-78
2023/02/21 07:44:30;;;;;;;17.63;11.85;;;10.30;99.90;;;;;;2076796;28;20057;-78
2023/02/21 07:45:31;;;;;;;19.80;12.45;;;10.30;99.90;;;;;;2084129;28;20031;-77
2023/02/21 07:46:33;;;;;;;18.48;12.20;;;10.30;99.90;;;;;;2084807;28;20586;-79